Time;durP1;ratioP1;P1;durP2;ratioP2;P2;SDS_P1;SDS_P2;PMS_P1;PMS_P2;Temp;Humidity;BMP_temperature;BMP_pressure;BME280_temperature;BME280_humidity;BME280_pressure;Samples;Min_cycle;Max_cycle;Signal;HPM_P1;HPM_P2
2020/12/13 00:00:32;;;;;;;48.03;22.43;;;3.30;99.90;;;;;;5018387;28;20173;-44
2020/12/13 00:02:58;;;;;;;52.47;22.30;;;3.30;99.90;;;;;;5022225;28;20211;-46
2020/12/13 00:05:23;;;;;;;47.27;21.27;;;3.30;99.90;;;;;;5002773;28;20541;-55
2020/12/13 00:07:52;;;;;;;50.40;22.17;;;3.30;99.90;;;;;;4992394;28;20195;-47
2020/12/13 00:10:18;;;;;;;47.73;20.67;;;3.30;99.90;;;;;;5017989;28;20184;-55
2020/12/13 00:12:44;;;;;;;42.93;20.20;;;3.30;99.90;;;;;;5002617;28;20208;-45
2020/12/13 00:15:10;;;;;;;51.13;21.20;;;3.30;99.90;;;;;;5004365;28;20219;-50
2020/12/13 00:17:35;;;;;;;45.83;19.70;;;3.20;99.90;;;;;;5003534;28;20169;-51
2020/12/13 00:20:01;;;;;;;54.07;21.33;;;3.20;99.90;;;;;;5005249;28;20173;-45
2020/12/13 00:22:26;;;;;;;51.63;21.30;;;3.20;99.90;;;;;;4979343;28;20315;-45
2020/12/13 00:24:52;;;;;;;48.13;20.47;;;3.20;99.90;;;;;;5008154;28;20176;-49
2020/12/13 00:27:17;;;;;;;49.87;20.50;;;3.20;99.90;;;;;;5019158;28;20195;-54
2020/12/13 00:29:43;;;;;;;53.03;21.97;;;3.20;99.90;;;;;;5011398;28;20246;-49
2020/12/13 00:32:08;;;;;;;51.27;22.43;;;3.20;99.90;;;;;;5021053;28;20184;-54
2020/12/13 00:34:34;;;;;;;49.37;21.23;;;3.20;99.90;;;;;;5019054;28;20841;-45
2020/12/13 00:37:00;;;;;;;43.10;20.47;;;3.20;99.90;;;;;;4985044;28;20184;-48
2020/12/13 00:39:26;;;;;;;51.57;21.07;;;3.20;99.90;;;;;;4991996;28;20184;-47
2020/12/13 00:41:53;;;;;;;47.47;21.13;;;3.20;99.90;;;;;;5002321;28;20231;-50
2020/12/13 00:44:19;;;;;;;51.70;20.60;;;3.20;99.90;;;;;;4992054;28;20194;-55
2020/12/13 00:46:46;;;;;;;54.17;23.07;;;3.20;99.90;;;;;;5019612;28;20199;-44
2020/12/13 00:49:11;;;;;;;44.00;20.33;;;3.20;99.90;;;;;;5024449;28;20669;-53
2020/12/13 00:51:37;;;;;;;48.20;19.77;;;3.20;99.90;;;;;;5004345;28;20201;-46
2020/12/13 00:54:02;;;;;;;48.53;21.10;;;3.20;99.90;;;;;;5002925;28;20208;-49
2020/12/13 00:56:28;;;;;;;50.70;20.50;;;3.20;99.90;;;;;;5021183;28;20208;-46
2020/12/13 00:58:53;;;;;;;46.07;19.43;;;3.20;99.90;;;;;;5022190;28;20554;-45
2020/12/13 01:01:19;;;;;;;48.33;19.07;;;3.20;99.90;;;;;;4991737;28;20196;-55
2020/12/13 01:03:44;;;;;;;49.07;22.20;;;3.20;99.90;;;;;;5024564;28;20231;-48
2020/12/13 01:06:10;;;;;;;50.07;22.20;;;3.20;99.90;;;;;;5019741;28;20180;-55
2020/12/13 01:08:35;;;;;;;45.47;19.57;;;3.20;99.90;;;;;;4980683;28;20907;-45
2020/12/13 01:11:01;;;;;;;48.90;20.77;;;3.20;99.90;;;;;;5013388;28;20188;-48
2020/12/13 01:13:26;;;;;;;49.40;21.23;;;3.20;99.90;;;;;;4998643;28;20951;-44
2020/12/13 01:15:53;;;;;;;51.20;21.00;;;3.20;99.90;;;;;;5014972;28;20295;-43
2020/12/13 01:18:19;;;;;;;48.93;20.53;;;3.20;99.90;;;;;;5019637;28;20644;-54
2020/12/13 01:20:45;;;;;;;51.13;21.23;;;3.20;99.90;;;;;;5023188;28;20230;-47
2020/12/13 01:23:10;;;;;;;50.77;20.60;;;3.20;99.90;;;;;;4985910;28;20209;-53
2020/12/13 01:25:36;;;;;;;50.73;20.97;;;3.20;99.90;;;;;;4988956;28;20181;-43
2020/12/13 01:28:01;;;;;;;51.10;20.10;;;3.20;99.90;;;;;;5003573;28;20189;-46
2020/12/13 01:30:27;;;;;;;47.13;19.30;;;3.20;99.90;;;;;;5009054;28;20180;-47
2020/12/13 01:32:52;;;;;;;50.00;21.07;;;3.20;99.90;;;;;;5007120;28;20215;-54
2020/12/13 01:35:18;;;;;;;41.30;19.23;;;3.20;99.90;;;;;;5021750;28;20196;-51
2020/12/13 01:37:43;;;;;;;52.23;21.23;;;3.20;99.90;;;;;;5004065;28;20204;-55
2020/12/13 01:40:09;;;;;;;48.00;20.30;;;3.20;99.90;;;;;;4993612;28;20184;-49
2020/12/13 01:42:42;;;;;;;47.43;19.70;;;3.20;99.90;;;;;;5001570;28;20840;-44
2020/12/13 01:45:09;;;;;;;47.17;20.20;;;3.20;99.90;;;;;;5002246;28;20215;-45
2020/12/13 01:47:35;;;;;;;40.00;20.27;;;3.20;99.90;;;;;;5006083;28;20181;-43
2020/12/13 01:50:01;;;;;;;46.77;20.50;;;3.20;99.90;;;;;;5001891;28;20326;-53
2020/12/13 01:55:07;;;;;;;46.13;20.20;;;3.20;99.90;;;;;;4988393;28;20234;-43
2020/12/13 01:57:44;;;;;;;44.80;19.57;;;3.20;99.90;;;;;;5017742;28;20180;-45
2020/12/13 02:00:13;;;;;;;44.53;18.80;;;3.20;99.90;;;;;;4993145;28;20183;-46
2020/12/13 02:02:44;;;;;;;46.07;19.47;;;3.20;99.90;;;;;;5024349;28;20207;-48
2020/12/13 02:05:10;;;;;;;42.43;21.10;;;3.20;99.90;;;;;;5021206;28;20259;-45
2020/12/13 02:07:37;;;;;;;50.53;20.20;;;3.20;99.90;;;;;;5003267;28;20280;-48
2020/12/13 02:10:06;;;;;;;47.37;19.87;;;3.20;99.90;;;;;;5001132;28;20897;-47
2020/12/13 02:12:31;;;;;;;41.97;19.10;;;3.20;99.90;;;;;;4996529;28;20193;-43
2020/12/13 02:14:57;;;;;;;48.13;18.90;;;3.20;99.90;;;;;;5012114;28;20245;-54
2020/12/13 02:17:22;;;;;;;47.27;19.90;;;3.20;99.90;;;;;;5023831;28;20198;-47
2020/12/13 02:19:48;;;;;;;46.53;19.17;;;3.20;99.90;;;;;;5022715;28;20641;-54
2020/12/13 02:22:14;;;;;;;39.43;18.80;;;3.20;99.90;;;;;;5021452;28;20183;-47
2020/12/13 02:24:39;;;;;;;45.60;20.07;;;3.20;99.90;;;;;;5000305;28;20231;-45
2020/12/13 02:27:07;;;;;;;47.30;18.97;;;3.20;99.90;;;;;;4993899;28;20216;-44
2020/12/13 02:29:34;;;;;;;45.23;19.40;;;3.20;99.90;;;;;;5024096;28;20564;-47
2020/12/13 02:32:00;;;;;;;45.60;19.87;;;3.20;99.90;;;;;;5019695;28;20298;-54
2020/12/13 02:34:25;;;;;;;44.67;19.93;;;3.20;99.90;;;;;;5023217;28;20212;-48
2020/12/13 02:36:51;;;;;;;42.33;19.07;;;3.20;99.90;;;;;;5021813;28;20528;-54
2020/12/13 02:39:16;;;;;;;35.30;18.67;;;3.20;99.90;;;;;;4993058;28;20189;-44
2020/12/13 02:41:41;;;;;;;42.60;19.03;;;3.20;99.90;;;;;;5007677;28;20190;-52
2020/12/13 02:44:07;;;;;;;42.63;18.77;;;3.20;99.90;;;;;;4998995;28;20239;-47
2020/12/13 02:46:33;;;;;;;50.37;21.47;;;3.20;99.90;;;;;;5004746;28;20184;-45
2020/12/13 02:48:58;;;;;;;44.43;19.17;;;3.20;99.90;;;;;;5000839;28;20215;-54
2020/12/13 02:51:24;;;;;;;51.10;20.20;;;3.10;99.90;;;;;;5004245;28;20207;-48
2020/12/13 02:53:50;;;;;;;44.00;19.50;;;3.10;99.90;;;;;;4995318;28;20201;-53
2020/12/13 02:56:15;;;;;;;46.03;19.27;;;3.20;99.90;;;;;;4995203;28;20295;-50
2020/12/13 02:58:41;;;;;;;53.50;19.13;;;3.10;99.90;;;;;;4998436;28;20207;-54
2020/12/13 03:01:08;;;;;;;43.80;18.27;;;3.10;99.90;;;;;;5004547;28;20173;-44
2020/12/13 03:03:33;;;;;;;43.80;20.03;;;3.20;99.90;;;;;;5004294;28;20196;-47
2020/12/13 03:05:59;;;;;;;42.43;18.53;;;3.10;99.90;;;;;;5000870;28;20701;-52
2020/12/13 03:08:24;;;;;;;48.37;19.30;;;3.10;99.90;;;;;;5003544;28;20328;-45
2020/12/13 03:10:49;;;;;;;48.50;19.70;;;3.10;99.90;;;;;;4982611;28;20541;-54
2020/12/13 03:13:15;;;;;;;47.93;18.70;;;3.10;99.90;;;;;;5003728;28;20282;-46
2020/12/13 03:15:41;;;;;;;46.57;18.20;;;3.10;99.90;;;;;;5011372;28;20218;-53
2020/12/13 03:18:07;;;;;;;49.97;19.90;;;3.10;99.90;;;;;;5019196;28;20186;-45
2020/12/13 03:20:32;;;;;;;40.97;18.27;;;3.10;99.90;;;;;;5023036;28;20187;-44
2020/12/13 03:22:58;;;;;;;49.83;19.70;;;3.10;99.90;;;;;;5019434;28;20221;-53
2020/12/13 03:25:23;;;;;;;51.87;19.97;;;3.10;99.90;;;;;;5002963;28;20657;-44
2020/12/13 03:27:49;;;;;;;46.57;20.70;;;3.10;99.90;;;;;;5013142;28;20245;-54
2020/12/13 03:30:14;;;;;;;44.77;20.07;;;3.10;99.90;;;;;;4991561;28;20337;-48
2020/12/13 03:32:39;;;;;;;50.10;19.53;;;3.00;99.90;;;;;;5006883;28;20188;-45
2020/12/13 03:35:05;;;;;;;47.37;20.13;;;3.10;99.90;;;;;;4999773;28;20346;-45
2020/12/13 03:37:31;;;;;;;53.50;20.83;;;3.10;99.90;;;;;;4997560;28;20180;-47
2020/12/13 03:39:56;;;;;;;46.37;20.40;;;3.10;99.90;;;;;;5000397;28;20238;-54
2020/12/13 03:42:22;;;;;;;59.13;21.10;;;3.00;99.90;;;;;;4986055;28;20658;-44
2020/12/13 03:44:47;;;;;;;50.87;19.93;;;3.00;99.90;;;;;;5000576;28;20209;-51
2020/12/13 03:47:13;;;;;;;48.70;20.30;;;3.00;99.90;;;;;;4996278;28;20218;-48
2020/12/13 03:49:38;;;;;;;51.83;19.83;;;3.00;99.90;;;;;;5003880;28;20596;-51
2020/12/13 03:52:04;;;;;;;49.90;19.67;;;3.00;99.90;;;;;;5009529;28;20164;-45
2020/12/13 03:54:30;;;;;;;53.37;20.63;;;3.00;99.90;;;;;;5022787;28;20206;-45
2020/12/13 03:56:56;;;;;;;54.70;22.30;;;3.00;99.90;;;;;;4997372;28;20664;-54
2020/12/13 03:59:21;;;;;;;56.23;20.63;;;3.00;99.90;;;;;;4996109;28;20184;-47
2020/12/13 04:01:47;;;;;;;48.37;21.33;;;3.00;99.90;;;;;;4994564;28;20184;-54
2020/12/13 04:04:12;;;;;;;47.37;20.60;;;3.00;99.90;;;;;;5020080;28;20274;-46
2020/12/13 04:06:38;;;;;;;45.77;21.57;;;3.00;99.90;;;;;;5022595;28;20180;-49
2020/12/13 04:09:03;;;;;;;55.77;19.87;;;2.90;99.90;;;;;;5018659;28;20204;-47
2020/12/13 04:11:28;;;;;;;48.00;19.33;;;2.90;99.90;;;;;;5021199;28;20538;-43
2020/12/13 04:13:54;;;;;;;56.60;20.83;;;2.90;99.90;;;;;;4979948;28;20216;-54
2020/12/13 04:16:19;;;;;;;55.10;21.53;;;2.90;99.90;;;;;;4994033;28;20991;-47
2020/12/13 04:18:45;;;;;;;48.73;20.90;;;2.90;99.90;;;;;;5002636;28;20279;-56
2020/12/13 04:21:10;;;;;;;58.83;22.40;;;2.90;99.90;;;;;;5003407;28;20818;-46
2020/12/13 04:23:36;;;;;;;48.47;19.77;;;2.90;99.90;;;;;;5007519;28;20209;-47
2020/12/13 04:26:01;;;;;;;54.13;21.37;;;2.90;99.90;;;;;;5003505;28;20283;-47
2020/12/13 04:28:27;;;;;;;54.30;21.23;;;2.90;99.90;;;;;;4991835;28;20194;-46
2020/12/13 04:30:52;;;;;;;51.63;21.40;;;2.90;99.90;;;;;;5011886;28;20209;-52
2020/12/13 04:33:18;;;;;;;56.97;21.60;;;2.90;99.90;;;;;;4994071;28;20213;-46
2020/12/13 04:35:43;;;;;;;52.57;21.33;;;2.90;99.90;;;;;;5006473;28;20661;-54
2020/12/13 04:38:09;;;;;;;55.43;20.70;;;2.90;99.90;;;;;;5003716;28;20191;-44
2020/12/13 04:40:34;;;;;;;58.27;21.03;;;2.90;99.90;;;;;;5007242;28;20264;-46
2020/12/13 04:43:00;;;;;;;51.30;21.27;;;2.90;99.90;;;;;;4999494;28;20239;-54
2020/12/13 04:45:27;;;;;;;53.30;20.87;;;2.90;99.90;;;;;;4989057;28;20646;-46
2020/12/13 04:48:05;;;;;;;48.70;19.53;;;2.90;99.90;;;;;;5000524;28;20203;-54
2020/12/13 04:50:38;;;;;;;47.73;20.03;;;2.90;99.90;;;;;;5001611;28;20554;-46
2020/12/13 04:53:08;;;;;;;49.33;19.70;;;2.90;99.90;;;;;;5002589;28;20212;-46
2020/12/13 04:55:57;;;;;;;47.97;18.97;;;2.90;99.90;;;;;;5006656;28;20692;-46
2020/12/13 04:58:24;;;;;;;47.63;19.40;;;2.90;99.90;;;;;;5006207;28;20188;-46
2020/12/13 05:00:57;;;;;;;51.13;20.60;;;2.90;99.90;;;;;;4992942;28;20283;-53
2020/12/13 05:03:25;;;;;;;49.67;20.30;;;2.80;99.90;;;;;;5007248;28;20226;-48
2020/12/13 05:05:52;;;;;;;46.90;19.27;;;2.80;99.90;;;;;;5023167;28;20614;-56
2020/12/13 05:08:18;;;;;;;52.63;20.83;;;2.80;99.90;;;;;;5024050;28;20180;-44
2020/12/13 05:10:43;;;;;;;53.23;19.83;;;2.80;99.90;;;;;;5024790;28;20609;-54
2020/12/13 05:13:10;;;;;;;51.47;19.43;;;2.90;99.90;;;;;;5010431;28;20195;-47
2020/12/13 05:15:37;;;;;;;52.13;21.37;;;2.90;99.90;;;;;;4988026;28;20682;-47
2020/12/13 05:18:03;;;;;;;46.70;19.90;;;2.80;99.90;;;;;;4994142;28;20964;-43
2020/12/13 05:20:29;;;;;;;54.67;20.53;;;2.80;99.90;;;;;;5011625;28;20195;-46
2020/12/13 05:22:56;;;;;;;53.33;21.17;;;2.80;99.90;;;;;;5003173;28;20205;-54
2020/12/13 05:25:38;;;;;;;45.40;19.50;;;2.80;99.90;;;;;;5005326;28;20188;-44
2020/12/13 05:28:08;;;;;;;41.77;18.50;;;2.80;99.90;;;;;;5002177;28;20200;-46
2020/12/13 05:30:39;;;;;;;48.27;19.97;;;2.80;99.90;;;;;;5007060;28;20239;-44
2020/12/13 05:33:33;;;;;;;50.10;18.90;;;2.80;99.90;;;;;;4986847;28;20267;-43
2020/12/13 05:36:04;;;;;;;51.17;18.50;;;2.80;99.90;;;;;;5009376;28;20216;-52
2020/12/13 05:38:35;;;;;;;48.13;18.37;;;2.80;99.90;;;;;;5025090;28;20175;-49
2020/12/13 05:41:03;;;;;;;49.63;20.47;;;2.80;99.90;;;;;;5020366;28;20417;-54
2020/12/13 05:43:32;;;;;;;47.63;20.30;;;2.80;99.90;;;;;;5024916;28;20212;-48
2020/12/13 05:46:23;;;;;;;51.40;20.37;;;2.80;99.90;;;;;;5006487;28;20215;-53
2020/12/13 05:49:09;;;;;;;51.27;20.33;;;2.80;99.90;;;;;;5003933;28;20193;-55
2020/12/13 05:51:39;;;;;;;48.37;19.10;;;2.80;99.90;;;;;;5000269;28;20866;-49
2020/12/13 05:54:12;;;;;;;58.50;20.30;;;2.80;99.90;;;;;;5005706;28;20933;-50
2020/12/13 05:56:38;;;;;;;49.70;19.87;;;2.80;99.90;;;;;;5024224;28;20758;-48
2020/12/13 05:59:05;;;;;;;58.13;22.33;;;2.80;99.90;;;;;;5020694;28;20172;-48
2020/12/13 06:01:31;;;;;;;50.87;20.67;;;2.80;99.90;;;;;;5004103;28;20196;-43
2020/12/13 06:03:59;;;;;;;57.73;20.93;;;2.80;99.90;;;;;;4995546;28;20243;-53
2020/12/13 06:06:26;;;;;;;67.17;22.50;;;2.80;99.90;;;;;;5005714;28;20192;-45
2020/12/13 06:09:08;;;;;;;62.93;22.97;;;2.80;99.90;;;;;;5008780;28;20226;-56
2020/12/13 06:11:48;;;;;;;60.53;22.00;;;2.70;99.90;;;;;;4999981;28;20184;-48
2020/12/13 06:14:18;;;;;;;69.20;22.07;;;2.70;99.90;;;;;;5003665;28;20204;-44
2020/12/13 06:16:44;;;;;;;66.10;23.80;;;2.70;99.90;;;;;;5001001;28;20200;-56
2020/12/13 06:19:12;;;;;;;66.37;24.03;;;2.70;99.90;;;;;;4994137;28;20912;-47
2020/12/13 06:21:38;;;;;;;55.90;21.00;;;2.70;99.90;;;;;;4997542;28;20255;-44
2020/12/13 06:24:07;;;;;;;67.97;23.20;;;2.70;99.90;;;;;;5003475;28;20303;-44
2020/12/13 06:26:33;;;;;;;51.53;21.60;;;2.70;99.90;;;;;;5009735;28;20668;-47
2020/12/13 06:28:58;;;;;;;68.07;23.60;;;2.70;99.90;;;;;;4999730;28;20201;-56
2020/12/13 06:31:24;;;;;;;60.27;23.63;;;2.70;99.90;;;;;;5007408;28;20204;-45
2020/12/13 06:33:49;;;;;;;62.57;23.33;;;2.70;99.90;;;;;;4996652;28;20216;-51
2020/12/13 06:36:15;;;;;;;54.87;22.80;;;2.70;99.90;;;;;;5003575;28;20338;-44
2020/12/13 06:38:41;;;;;;;58.73;22.37;;;2.70;99.90;;;;;;5001379;28;20539;-53
2020/12/13 06:41:12;;;;;;;64.53;22.30;;;2.70;99.90;;;;;;5003794;28;20247;-49
2020/12/13 06:43:54;;;;;;;66.67;23.20;;;2.70;99.90;;;;;;5001483;28;20203;-46
2020/12/13 06:46:20;;;;;;;57.20;21.13;;;2.70;99.90;;;;;;5001286;28;20259;-44
2020/12/13 06:48:46;;;;;;;66.13;23.47;;;2.80;99.90;;;;;;4992810;28;20745;-51
2020/12/13 06:51:26;;;;;;;65.97;23.20;;;2.80;99.90;;;;;;5003530;28;20184;-44
2020/12/13 06:53:52;;;;;;;62.83;22.77;;;2.80;99.90;;;;;;5008214;28;20218;-50
2020/12/13 06:56:19;;;;;;;52.67;22.10;;;2.80;99.90;;;;;;5013694;28;20228;-45
2020/12/13 06:58:56;;;;;;;66.73;22.63;;;2.80;99.90;;;;;;5003981;28;20219;-50
2020/12/13 07:01:29;;;;;;;54.67;21.90;;;2.80;99.90;;;;;;4996419;28;20212;-55
2020/12/13 07:03:58;;;;;;;64.33;24.40;;;2.80;99.90;;;;;;4984771;28;20215;-49
2020/12/13 07:06:42;;;;;;;65.37;22.67;;;2.80;99.90;;;;;;4995821;28;20264;-55
2020/12/13 07:09:07;;;;;;;66.10;23.77;;;2.80;99.90;;;;;;4999052;28;20203;-46
2020/12/13 07:11:33;;;;;;;72.10;24.17;;;2.80;99.90;;;;;;5003583;28;20184;-54
2020/12/13 07:14:07;;;;;;;62.33;24.17;;;2.70;99.90;;;;;;4999101;28;20376;-46
2020/12/13 07:16:39;;;;;;;73.60;24.57;;;2.80;99.90;;;;;;4987955;28;20255;-45
2020/12/13 07:19:07;;;;;;;66.60;22.77;;;2.80;99.90;;;;;;5021338;28;20191;-43
2020/12/13 07:21:34;;;;;;;66.13;23.77;;;2.80;99.90;;;;;;4988764;28;20216;-48
2020/12/13 07:24:00;;;;;;;61.83;22.77;;;2.80;99.90;;;;;;4996335;28;20618;-49
2020/12/13 07:26:30;;;;;;;68.33;23.60;;;2.80;99.90;;;;;;5000943;28;20216;-53
2020/12/13 07:28:57;;;;;;;74.47;24.40;;;2.80;99.90;;;;;;5003198;28;20210;-48
2020/12/13 07:31:25;;;;;;;61.67;23.90;;;2.80;99.90;;;;;;5005998;28;20208;-50
2020/12/13 07:33:51;;;;;;;63.97;22.87;;;2.80;99.90;;;;;;5021830;28;20221;-44
2020/12/13 07:36:17;;;;;;;69.30;23.60;;;2.90;99.90;;;;;;4993383;28;20216;-52
2020/12/13 07:38:42;;;;;;;66.00;22.30;;;2.90;99.90;;;;;;4990864;28;20426;-49
2020/12/13 07:41:21;;;;;;;68.93;24.30;;;2.90;99.90;;;;;;4997333;28;20184;-43
2020/12/13 07:43:59;;;;;;;69.83;24.23;;;2.90;99.90;;;;;;5005376;28;20212;-45
2020/12/13 07:46:27;;;;;;;64.23;24.03;;;2.90;99.90;;;;;;5000997;28;20191;-54
2020/12/13 07:49:11;;;;;;;62.47;22.50;;;2.90;99.90;;;;;;4997199;28;20188;-51
2020/12/13 07:51:40;;;;;;;68.33;23.00;;;2.90;99.90;;;;;;4979989;28;20196;-43
2020/12/13 07:54:20;;;;;;;59.67;23.00;;;2.90;99.90;;;;;;4998790;28;20750;-44
2020/12/13 07:56:48;;;;;;;64.77;22.87;;;2.90;99.90;;;;;;5020051;28;20214;-45
2020/12/13 07:59:21;;;;;;;66.47;23.53;;;2.90;99.90;;;;;;5011985;28;20256;-54
2020/12/13 08:01:49;;;;;;;66.83;23.03;;;2.90;99.90;;;;;;5002754;28;20235;-44
2020/12/13 08:04:15;;;;;;;65.20;24.00;;;2.90;99.90;;;;;;5006847;28;20569;-54
2020/12/13 08:06:41;;;;;;;65.07;24.67;;;3.00;99.90;;;;;;4989760;28;20207;-48
2020/12/13 08:09:08;;;;;;;63.17;22.77;;;3.00;99.90;;;;;;5005957;28;20181;-48
2020/12/13 08:11:35;;;;;;;67.17;22.00;;;3.00;99.90;;;;;;4997425;28;20225;-44
2020/12/13 08:14:00;;;;;;;58.40;22.60;;;3.00;99.90;;;;;;5016593;28;20306;-48
2020/12/13 08:16:26;;;;;;;64.23;22.43;;;3.00;99.90;;;;;;5004453;28;20295;-53
2020/12/13 08:18:55;;;;;;;56.70;21.13;;;3.00;99.90;;;;;;5006950;28;20660;-46
2020/12/13 08:21:34;;;;;;;58.77;22.23;;;3.10;99.90;;;;;;5005090;28;20263;-53
2020/12/13 08:24:03;;;;;;;55.70;21.20;;;3.10;99.90;;;;;;4978451;28;20204;-47
2020/12/13 08:26:29;;;;;;;57.27;21.80;;;3.10;99.90;;;;;;4994676;28;20192;-48
2020/12/13 08:28:57;;;;;;;66.73;23.00;;;3.00;99.90;;;;;;4996657;28;20196;-44
2020/12/13 08:31:28;;;;;;;52.50;20.67;;;3.00;99.90;;;;;;4969258;28;20197;-54
2020/12/13 08:34:05;;;;;;;54.17;21.93;;;3.10;99.90;;;;;;4997800;28;20636;-47
2020/12/13 08:36:31;;;;;;;60.13;23.17;;;3.10;99.90;;;;;;4988667;28;20800;-44
2020/12/13 08:39:04;;;;;;;58.23;21.80;;;3.10;99.90;;;;;;4988174;28;20194;-44
2020/12/13 08:41:30;;;;;;;60.67;22.47;;;3.10;99.90;;;;;;4991858;28;20330;-47
2020/12/13 08:43:56;;;;;;;56.63;23.10;;;3.10;99.90;;;;;;4983426;28;20227;-45
2020/12/13 08:46:33;;;;;;;60.47;21.17;;;3.10;99.90;;;;;;4992774;28;20192;-47
2020/12/13 08:48:59;;;;;;;58.33;22.13;;;3.10;99.90;;;;;;4997921;28;20850;-45
2020/12/13 08:51:26;;;;;;;63.80;22.30;;;3.10;99.90;;;;;;4997241;28;20573;-48
2020/12/13 08:54:03;;;;;;;51.60;21.33;;;3.10;99.90;;;;;;4991211;28;20993;-53
2020/12/13 08:56:37;;;;;;;66.73;23.90;;;3.20;99.90;;;;;;4986989;28;20217;-47
2020/12/13 08:59:05;;;;;;;56.17;20.93;;;3.20;99.90;;;;;;5003983;28;20193;-46
2020/12/13 09:01:35;;;;;;;57.17;22.50;;;3.20;99.90;;;;;;4999274;28;20173;-48
2020/12/13 09:04:15;;;;;;;59.07;21.47;;;3.20;99.90;;;;;;5005686;28;20251;-47
2020/12/13 09:06:41;;;;;;;52.53;22.37;;;3.20;99.90;;;;;;5002253;28;20201;-48
2020/12/13 09:09:11;;;;;;;60.60;23.13;;;3.20;99.90;;;;;;5005515;28;20215;-50
2020/12/13 09:11:37;;;;;;;57.67;23.27;;;3.30;99.90;;;;;;4990645;28;21828;-48
2020/12/13 09:14:03;;;;;;;56.07;21.50;;;3.30;99.90;;;;;;4996919;28;20212;-51
2020/12/13 09:16:33;;;;;;;61.20;22.90;;;3.30;99.90;;;;;;4998558;28;20963;-47
2020/12/13 09:19:10;;;;;;;60.57;21.57;;;3.30;99.90;;;;;;4997752;28;20272;-49
2020/12/13 09:21:57;;;;;;;60.27;22.83;;;3.30;99.90;;;;;;4999376;28;20161;-49
2020/12/13 09:24:28;;;;;;;60.67;23.17;;;3.30;99.90;;;;;;5004399;28;20199;-51
2020/12/13 09:27:05;;;;;;;54.33;21.93;;;3.30;99.90;;;;;;4995030;28;20193;-44
2020/12/13 09:29:31;;;;;;;63.23;22.50;;;3.30;99.90;;;;;;4994575;28;20187;-47
2020/12/13 09:31:57;;;;;;;61.83;24.20;;;3.30;99.90;;;;;;5006112;28;20180;-48
2020/12/13 09:34:22;;;;;;;70.00;23.83;;;3.30;99.90;;;;;;5006097;28;20211;-47
2020/12/13 09:36:49;;;;;;;63.97;22.37;;;3.30;99.90;;;;;;5001012;28;20577;-46
2020/12/13 09:39:15;;;;;;;59.97;23.73;;;3.30;99.90;;;;;;5006453;28;20180;-48
2020/12/13 09:41:40;;;;;;;67.37;22.97;;;3.40;99.90;;;;;;4988203;28;20219;-46
2020/12/13 09:44:06;;;;;;;57.87;22.07;;;3.40;99.90;;;;;;4992340;28;20219;-48
2020/12/13 09:46:31;;;;;;;58.40;22.67;;;3.40;99.90;;;;;;5011745;28;20318;-47
2020/12/13 09:48:57;;;;;;;60.67;22.53;;;3.40;99.90;;;;;;5007758;28;20192;-45
2020/12/13 09:51:22;;;;;;;57.50;21.90;;;3.40;99.90;;;;;;5001994;28;20177;-54
2020/12/13 09:53:48;;;;;;;58.23;23.20;;;3.40;99.90;;;;;;5004519;28;20197;-48
2020/12/13 09:56:18;;;;;;;60.57;22.67;;;3.40;99.90;;;;;;4998447;28;20200;-50
2020/12/13 09:58:45;;;;;;;68.37;23.57;;;3.50;99.90;;;;;;4987051;28;20193;-46
2020/12/13 10:01:11;;;;;;;59.63;22.30;;;3.50;99.90;;;;;;5007378;28;20213;-52
2020/12/13 10:03:43;;;;;;;61.67;24.47;;;3.50;99.90;;;;;;4994110;28;21041;-49
2020/12/13 10:11:22;;;;;;;64.13;22.47;;;3.50;99.90;;;;;;5002095;28;20187;-50
2020/12/13 10:13:48;;;;;;;61.97;23.40;;;3.50;99.90;;;;;;4996871;28;20220;-47
2020/12/13 10:16:17;;;;;;;59.73;22.87;;;3.50;99.90;;;;;;4990861;28;20219;-49
2020/12/13 10:18:42;;;;;;;66.20;23.67;;;3.50;99.90;;;;;;4992758;28;20180;-46
2020/12/13 10:21:08;;;;;;;67.10;24.10;;;3.60;99.90;;;;;;5023593;28;20718;-49
2020/12/13 10:23:33;;;;;;;62.70;23.80;;;3.60;99.90;;;;;;5020197;28;20215;-46
2020/12/13 10:25:59;;;;;;;63.60;24.30;;;3.60;99.90;;;;;;5024142;28;20184;-47
2020/12/13 10:28:24;;;;;;;65.37;23.43;;;3.60;99.90;;;;;;4991285;28;20721;-49
2020/12/13 10:30:50;;;;;;;64.93;23.40;;;3.60;99.90;;;;;;4998793;28;20192;-46
2020/12/13 10:33:17;;;;;;;56.93;24.87;;;3.60;99.90;;;;;;5007177;28;20200;-52
2020/12/13 10:35:42;;;;;;;58.67;23.83;;;3.60;99.90;;;;;;5011283;28;20200;-48
2020/12/13 10:38:08;;;;;;;66.30;25.07;;;3.60;99.90;;;;;;5023703;28;20186;-53
2020/12/13 10:40:34;;;;;;;66.20;25.10;;;3.60;99.90;;;;;;5020477;28;20168;-51
2020/12/13 10:43:00;;;;;;;63.30;24.03;;;3.70;99.90;;;;;;5002517;28;20212;-48
2020/12/13 10:45:26;;;;;;;66.23;23.43;;;3.70;99.90;;;;;;4999026;28;20206;-48
2020/12/13 10:47:51;;;;;;;61.40;25.30;;;3.70;99.90;;;;;;5021353;28;20253;-44
2020/12/13 10:50:18;;;;;;;68.03;24.03;;;3.70;99.90;;;;;;5009014;28;20240;-48
2020/12/13 10:52:43;;;;;;;65.77;24.87;;;3.70;99.90;;;;;;5002981;28;20181;-45
2020/12/13 10:55:08;;;;;;;66.67;24.63;;;3.70;99.90;;;;;;5003978;28;20662;-46
2020/12/13 10:57:34;;;;;;;77.93;27.47;;;3.80;99.90;;;;;;5001120;28;20208;-48
2020/12/13 10:59:59;;;;;;;71.43;24.63;;;3.80;99.90;;;;;;4984423;28;20191;-48
2020/12/13 11:02:25;;;;;;;69.57;23.37;;;3.80;99.90;;;;;;4992511;28;20205;-49
2020/12/13 11:04:50;;;;;;;76.47;26.80;;;3.80;99.90;;;;;;5003122;28;20795;-46
2020/12/13 11:07:17;;;;;;;75.97;24.73;;;3.80;99.90;;;;;;5006837;28;20200;-50
2020/12/13 11:09:44;;;;;;;63.03;24.83;;;3.80;99.90;;;;;;4978138;28;20180;-46
2020/12/13 11:12:11;;;;;;;69.20;24.40;;;3.90;99.90;;;;;;4982591;28;20877;-47
2020/12/13 11:14:37;;;;;;;71.70;25.53;;;3.90;99.90;;;;;;4990112;28;20778;-45
2020/12/13 11:17:03;;;;;;;65.80;25.17;;;3.90;99.90;;;;;;4987206;28;20402;-49
2020/12/13 11:19:28;;;;;;;68.93;23.77;;;3.90;99.90;;;;;;5002318;28;20185;-43
2020/12/13 11:21:54;;;;;;;71.27;24.80;;;3.90;99.90;;;;;;4997742;28;20228;-48
2020/12/13 11:24:20;;;;;;;74.13;24.53;;;3.90;99.90;;;;;;5006025;28;20193;-49
2020/12/13 11:26:48;;;;;;;69.73;24.40;;;3.90;99.90;;;;;;5001393;28;20204;-49
2020/12/13 11:29:14;;;;;;;73.60;26.63;;;3.90;99.90;;;;;;5012558;28;20661;-52
2020/12/13 11:31:39;;;;;;;66.63;25.07;;;3.90;99.90;;;;;;4989502;28;20200;-45
2020/12/13 11:34:05;;;;;;;68.83;25.63;;;3.90;99.90;;;;;;4997044;28;20995;-45
2020/12/13 11:36:30;;;;;;;76.57;25.33;;;3.90;99.90;;;;;;5016942;28;20195;-50
2020/12/13 11:38:56;;;;;;;72.20;25.77;;;3.90;99.90;;;;;;5000618;28;20183;-50
2020/12/13 11:41:28;;;;;;;67.37;25.90;;;3.90;99.90;;;;;;5006781;28;20174;-52
2020/12/13 11:43:54;;;;;;;62.57;26.57;;;4.00;99.90;;;;;;4998485;28;20196;-51
2020/12/13 11:46:19;;;;;;;65.60;25.70;;;4.00;99.90;;;;;;4982191;28;20217;-47
2020/12/13 11:48:45;;;;;;;74.00;25.67;;;4.00;99.90;;;;;;4989090;28;20204;-50
2020/12/13 11:51:10;;;;;;;69.00;25.00;;;4.00;99.90;;;;;;5005758;28;20173;-51
2020/12/13 11:53:36;;;;;;;67.43;25.37;;;4.00;99.90;;;;;;5004094;28;20689;-50
2020/12/13 11:56:02;;;;;;;66.33;25.17;;;4.00;99.90;;;;;;5001674;28;20251;-49
2020/12/13 11:58:27;;;;;;;65.80;24.07;;;4.10;99.90;;;;;;4994749;28;20974;-50
2020/12/13 12:00:53;;;;;;;70.77;26.07;;;4.10;99.90;;;;;;4986648;28;20193;-49
2020/12/13 12:03:19;;;;;;;75.33;26.07;;;4.10;99.90;;;;;;4996081;28;20196;-51
2020/12/13 12:05:45;;;;;;;72.73;26.37;;;4.10;99.90;;;;;;4989586;28;20200;-51
2020/12/13 12:08:10;;;;;;;81.03;29.73;;;4.10;99.90;;;;;;4999674;28;20200;-48
2020/12/13 12:10:36;;;;;;;436.27;252.27;;;4.10;99.90;;;;;;4996890;28;20196;-47
2020/12/13 12:13:02;;;;;;;496.10;318.63;;;4.10;99.90;;;;;;5004155;28;20710;-47
2020/12/13 12:15:27;;;;;;;118.13;62.37;;;4.20;99.90;;;;;;4981930;28;20939;-49
2020/12/13 12:17:53;;;;;;;74.67;32.73;;;4.20;99.90;;;;;;5002901;28;20189;-54
2020/12/13 12:20:20;;;;;;;65.10;25.47;;;4.20;99.90;;;;;;4985683;28;20248;-52
2020/12/13 12:22:46;;;;;;;62.03;25.90;;;4.20;99.90;;;;;;5020689;28;20874;-52
2020/12/13 12:25:12;;;;;;;64.40;27.97;;;4.20;99.90;;;;;;5007391;28;20287;-51
2020/12/13 12:27:38;;;;;;;62.13;24.47;;;4.20;99.90;;;;;;5019730;28;20263;-49
2020/12/13 12:30:05;;;;;;;68.13;24.83;;;4.20;99.90;;;;;;5012951;28;20320;-50
2020/12/13 12:32:31;;;;;;;62.33;23.57;;;4.20;99.90;;;;;;4982707;28;20269;-46
2020/12/13 12:34:57;;;;;;;62.10;24.63;;;4.30;99.90;;;;;;5001606;28;20233;-46
2020/12/13 12:37:23;;;;;;;71.80;25.67;;;4.20;99.90;;;;;;5018093;28;20183;-47
2020/12/13 12:39:49;;;;;;;64.20;23.93;;;4.30;99.90;;;;;;5013051;28;20196;-48
2020/12/13 12:42:15;;;;;;;63.37;25.60;;;4.30;99.90;;;;;;5022430;28;20188;-49
2020/12/13 12:44:40;;;;;;;65.40;25.33;;;4.30;99.90;;;;;;5009714;28;20201;-47